sensor_id;sensor_type;location;lat;lon;timestamp;pressure;altitude;pressure_sealevel;temperature;humidity
25156;BME280;21913;52.456;13.634;2022-12-29T00:01:33;99021.13;;;12.74;72.03
25156;BME280;21913;52.456;13.634;2022-12-29T00:06:34;99015.94;;;12.74;72.03
25156;BME280;21913;52.456;13.634;2022-12-29T00:11:36;99007.31;;;12.72;72.16
25156;BME280;21913;52.456;13.634;2022-12-29T00:16:40;99002.13;;;12.72;72.14
25156;BME280;21913;52.456;13.634;2022-12-29T00:21:42;98979.66;;;12.71;72.16
25156;BME280;21913;52.456;13.634;2022-12-29T00:26:45;98983.16;;;12.70;72.26
25156;BME280;21913;52.456;13.634;2022-12-29T00:31:46;98973.63;;;12.70;72.32
25156;BME280;21913;52.456;13.634;2022-12-29T00:36:48;98978.81;;;12.70;72.21
25156;BME280;21913;52.456;13.634;2022-12-29T00:41:50;98953.75;;;12.69;72.13
25156;BME280;21913;52.456;13.634;2022-12-29T00:46:51;98951.16;;;12.69;72.30
25156;BME280;21913;52.456;13.634;2022-12-29T00:51:54;98939.94;;;12.69;72.24
25156;BME280;21913;52.456;13.634;2022-12-29T00:56:56;98939.06;;;12.68;72.44
25156;BME280;21913;52.456;13.634;2022-12-29T01:01:57;98950.34;;;12.67;72.28
25156;BME280;21913;52.456;13.634;2022-12-29T01:06:59;98948.59;;;12.68;72.38
25156;BME280;21913;52.456;13.634;2022-12-29T01:12:01;98941.69;;;12.68;72.38
25156;BME280;21913;52.456;13.634;2022-12-29T01:17:03;98923.53;;;12.67;72.41
25156;BME280;21913;52.456;13.634;2022-12-29T01:22:06;98931.31;;;12.67;72.43
25156;BME280;21913;52.456;13.634;2022-12-29T01:27:08;98921.81;;;12.66;72.40
25156;BME280;21913;52.456;13.634;2022-12-29T01:32:09;98917.50;;;12.66;72.43
25156;BME280;21913;52.456;13.634;2022-12-29T01:37:12;98916.63;;;12.66;72.53
25156;BME280;21913;52.456;13.634;2022-12-29T01:42:17;98917.50;;;12.66;72.50
25156;BME280;21913;52.456;13.634;2022-12-29T01:47:59;98917.50;;;12.66;72.40
25156;BME280;21913;52.456;13.634;2022-12-29T01:58:09;98907.16;;;12.64;72.49
25156;BME280;21913;52.456;13.634;2022-12-29T02:03:12;98911.50;;;12.64;72.60
25156;BME280;21913;52.456;13.634;2022-12-29T02:08:14;98894.22;;;12.63;72.61
25156;BME280;21913;52.456;13.634;2022-12-29T02:13:17;98896.81;;;12.63;72.72
25156;BME280;21913;52.456;13.634;2022-12-29T02:28:50;98876.97;;;12.62;72.57
25156;BME280;21913;52.456;13.634;2022-12-29T02:34:14;98876.13;;;12.61;72.70
25156;BME280;21913;52.456;13.634;2022-12-29T02:39:32;98877.84;;;12.61;72.60
25156;BME280;21913;52.456;13.634;2022-12-29T02:45:22;98855.34;;;12.61;72.71
25156;BME280;21913;52.456;13.634;2022-12-29T02:50:34;98860.53;;;12.61;72.73
25156;BME280;21913;52.456;13.634;2022-12-29T02:55:38;98859.66;;;12.61;72.72
25156;BME280;21913;52.456;13.634;2022-12-29T03:06:46;98857.13;;;12.59;72.73
25156;BME280;21913;52.456;13.634;2022-12-29T03:11:59;98858.81;;;12.60;72.75
25156;BME280;21913;52.456;13.634;2022-12-29T03:17:12;98854.53;;;12.59;72.75
25156;BME280;21913;52.456;13.634;2022-12-29T03:22:21;98846.75;;;12.59;72.70
25156;BME280;21913;52.456;13.634;2022-12-29T03:27:39;98832.91;;;12.59;72.77
25156;BME280;21913;52.456;13.634;2022-12-29T03:32:46;98834.66;;;12.58;72.83
25156;BME280;21913;52.456;13.634;2022-12-29T03:37:59;98825.13;;;12.59;72.84
25156;BME280;21913;52.456;13.634;2022-12-29T03:43:04;98813.91;;;12.58;72.84
25156;BME280;21913;52.456;13.634;2022-12-29T03:48:08;98821.69;;;12.58;72.73
25156;BME280;21913;52.456;13.634;2022-12-29T03:53:13;98822.59;;;12.57;72.83
25156;BME280;21913;52.456;13.634;2022-12-29T03:58:15;98809.63;;;12.57;72.88
25156;BME280;21913;52.456;13.634;2022-12-29T04:03:35;98807.03;;;12.57;72.92
25156;BME280;21913;52.456;13.634;2022-12-29T04:08:38;98809.63;;;12.57;72.90
25156;BME280;21913;52.456;13.634;2022-12-29T04:13:40;98806.19;;;12.57;72.83
25156;BME280;21913;52.456;13.634;2022-12-29T04:18:43;98798.41;;;12.57;72.99
25156;BME280;21913;52.456;13.634;2022-12-29T04:23:45;98817.41;;;12.57;72.82
25156;BME280;21913;52.456;13.634;2022-12-29T04:28:49;98812.22;;;12.57;72.95
25156;BME280;21913;52.456;13.634;2022-12-29T04:34:08;98785.44;;;12.55;72.91
25156;BME280;21913;52.456;13.634;2022-12-29T04:39:10;98789.75;;;12.56;72.84
25156;BME280;21913;52.456;13.634;2022-12-29T04:44:14;98792.34;;;12.56;72.94
25156;BME280;21913;52.456;13.634;2022-12-29T04:49:51;98780.25;;;12.55;72.98
25156;BME280;21913;52.456;13.634;2022-12-29T04:55:19;98781.97;;;12.56;72.88
25156;BME280;21913;52.456;13.634;2022-12-29T05:00:21;98766.44;;;12.55;72.95
25156;BME280;21913;52.456;13.634;2022-12-29T05:05:23;98763.84;;;12.55;72.91
25156;BME280;21913;52.456;13.634;2022-12-29T05:10:25;98767.28;;;12.55;72.94
25156;BME280;21913;52.456;13.634;2022-12-29T05:15:28;98756.06;;;12.55;72.87
25156;BME280;21913;52.456;13.634;2022-12-29T05:20:30;98751.72;;;12.55;72.80
25156;BME280;21913;52.456;13.634;2022-12-29T05:25:32;98764.69;;;12.55;72.93
25156;BME280;21913;52.456;13.634;2022-12-29T05:30:48;98768.16;;;12.56;72.87
25156;BME280;21913;52.456;13.634;2022-12-29T05:35:51;98760.41;;;12.54;72.79
25156;BME280;21913;52.456;13.634;2022-12-29T05:40:54;98763.00;;;12.54;72.86
25156;BME280;21913;52.456;13.634;2022-12-29T05:46:15;98769.88;;;12.55;72.91
25156;BME280;21913;52.456;13.634;2022-12-29T05:51:35;98776.81;;;12.55;72.87
25156;BME280;21913;52.456;13.634;2022-12-29T05:56:37;98775.97;;;12.54;72.88
25156;BME280;21913;52.456;13.634;2022-12-29T06:01:39;98773.38;;;12.54;72.90
25156;BME280;21913;52.456;13.634;2022-12-29T06:06:42;98781.16;;;12.54;72.98
25156;BME280;21913;52.456;13.634;2022-12-29T06:11:51;98812.28;;;12.54;73.00
25156;BME280;21913;52.456;13.634;2022-12-29T06:16:52;98812.28;;;12.54;72.93
25156;BME280;21913;52.456;13.634;2022-12-29T06:21:55;98833.03;;;12.54;73.05
25156;BME280;21913;52.456;13.634;2022-12-29T06:26:57;98827.00;;;12.54;72.92
25156;BME280;21913;52.456;13.634;2022-12-29T06:31:59;98833.03;;;12.54;72.95
25156;BME280;21913;52.456;13.634;2022-12-29T06:37:02;98833.94;;;12.53;72.96
25156;BME280;21913;52.456;13.634;2022-12-29T06:42:04;98833.09;;;12.53;72.98
25156;BME280;21913;52.456;13.634;2022-12-29T06:47:17;98845.22;;;12.52;73.00
25156;BME280;21913;52.456;13.634;2022-12-29T06:52:18;98847.81;;;12.52;72.90
25156;BME280;21913;52.456;13.634;2022-12-29T06:57:21;98844.38;;;12.52;73.07
25156;BME280;21913;52.456;13.634;2022-12-29T07:02:23;98832.19;;;12.54;72.99
25156;BME280;21913;52.456;13.634;2022-12-29T07:07:24;98850.41;;;12.52;72.96
25156;BME280;21913;52.456;13.634;2022-12-29T07:12:26;98853.00;;;12.52;73.07
25156;BME280;21913;52.456;13.634;2022-12-29T07:17:28;98867.72;;;12.52;73.09
25156;BME280;21913;52.456;13.634;2022-12-29T07:22:29;98878.09;;;12.52;73.18
25156;BME280;21913;52.456;13.634;2022-12-29T07:27:31;98866.81;;;12.53;73.18
25156;BME280;21913;52.456;13.634;2022-12-29T07:32:33;98872.91;;;12.52;73.16
25156;BME280;21913;52.456;13.634;2022-12-29T07:37:35;98873.75;;;12.52;73.09
25156;BME280;21913;52.456;13.634;2022-12-29T07:42:37;98885.88;;;12.52;73.13
25156;BME280;21913;52.456;13.634;2022-12-29T07:47:41;98891.91;;;12.52;73.10
25156;BME280;21913;52.456;13.634;2022-12-29T07:52:43;98905.78;;;12.51;73.13
25156;BME280;21913;52.456;13.634;2022-12-29T07:57:44;98916.16;;;12.51;73.23
25156;BME280;21913;52.456;13.634;2022-12-29T08:02:46;98938.63;;;12.52;73.19
25156;BME280;21913;52.456;13.634;2022-12-29T08:07:48;98920.47;;;12.52;73.23
25156;BME280;21913;52.456;13.634;2022-12-29T08:12:49;98923.94;;;12.51;73.15
25156;BME280;21913;52.456;13.634;2022-12-29T08:17:51;98922.19;;;12.52;73.24
25156;BME280;21913;52.456;13.634;2022-12-29T08:22:53;98918.75;;;12.51;73.34
25156;BME280;21913;52.456;13.634;2022-12-29T08:27:54;98921.34;;;12.51;73.19
25156;BME280;21913;52.456;13.634;2022-12-29T08:32:56;98937.78;;;12.50;73.22
25156;BME280;21913;52.456;13.634;2022-12-29T08:37:57;98951.59;;;12.52;73.17
25156;BME280;21913;52.456;13.634;2022-12-29T08:42:59;98973.25;;;12.51;73.25
25156;BME280;21913;52.456;13.634;2022-12-29T08:48:01;98970.66;;;12.51;73.16
25156;BME280;21913;52.456;13.634;2022-12-29T08:53:02;98968.06;;;12.51;73.11
25156;BME280;21913;52.456;13.634;2022-12-29T08:58:04;98964.59;;;12.51;73.27
25156;BME280;21913;52.456;13.634;2022-12-29T09:03:09;98955.94;;;12.50;73.19
25156;BME280;21913;52.456;13.634;2022-12-29T09:08:10;98971.50;;;12.50;73.24
25156;BME280;21913;52.456;13.634;2022-12-29T09:13:13;98969.81;;;12.51;73.23
25156;BME280;21913;52.456;13.634;2022-12-29T09:18:15;98963.72;;;12.50;73.12
25156;BME280;21913;52.456;13.634;2022-12-29T09:23:19;98968.91;;;12.50;73.12
25156;BME280;21913;52.456;13.634;2022-12-29T09:28:21;98988.81;;;12.51;73.13
25156;BME280;21913;52.456;13.634;2022-12-29T09:33:23;98987.06;;;12.50;73.13
25156;BME280;21913;52.456;13.634;2022-12-29T09:38:26;98987.97;;;12.51;73.08
25156;BME280;21913;52.456;13.634;2022-12-29T09:54:42;99022.56;;;12.50;73.09
25156;BME280;21913;52.456;13.634;2022-12-29T10:00:06;99028.59;;;12.50;72.97
25156;BME280;21913;52.456;13.634;2022-12-29T10:10:46;99043.56;;;12.39;70.29
25156;BME280;21913;52.456;13.634;2022-12-29T10:16:05;99034.00;;;12.41;70.51
25156;BME280;21913;52.456;13.634;2022-12-29T10:26:27;99023.53;;;12.46;71.12
25156;BME280;21913;52.456;13.634;2022-12-29T10:31:41;99008.78;;;12.48;71.25
25156;BME280;21913;52.456;13.634;2022-12-29T10:36:51;99010.53;;;12.47;71.37
25156;BME280;21913;52.456;13.634;2022-12-29T10:41:56;99003.66;;;12.45;71.47
25156;BME280;21913;52.456;13.634;2022-12-29T10:47:03;99012.25;;;12.47;71.74
25156;BME280;21913;52.456;13.634;2022-12-29T10:52:07;99010.53;;;12.47;71.91
25156;BME280;21913;52.456;13.634;2022-12-29T10:57:26;99012.22;;;12.48;71.79
25156;BME280;21913;52.456;13.634;2022-12-29T11:08:12;99011.38;;;12.48;71.96
25156;BME280;21913;52.456;13.634;2022-12-29T11:13:25;99006.44;;;12.37;69.66
25156;BME280;21913;52.456;13.634;2022-12-29T11:18:38;99013.31;;;12.38;69.97
25156;BME280;21913;52.456;13.634;2022-12-29T11:23:41;99039.19;;;12.41;70.41
25156;BME280;21913;52.456;13.634;2022-12-29T11:28:46;99026.22;;;12.41;70.62
25156;BME280;21913;52.456;13.634;2022-12-29T11:33:48;99044.75;;;12.26;66.02
25156;BME280;21913;52.456;13.634;2022-12-29T11:38:52;99039.56;;;12.26;67.06
25156;BME280;21913;52.456;13.634;2022-12-29T11:44:00;99043.69;;;12.33;67.95
25156;BME280;21913;52.456;13.634;2022-12-29T11:49:18;99045.34;;;12.37;68.45
25156;BME280;21913;52.456;13.634;2022-12-29T11:54:36;99054.78;;;12.41;68.84
25156;BME280;21913;52.456;13.634;2022-12-29T12:00:13;99064.22;;;12.44;69.10
25156;BME280;21913;52.456;13.634;2022-12-29T12:11:08;99056.44;;;12.44;69.71
25156;BME280;21913;52.456;13.634;2022-12-29T12:16:19;99077.16;;;12.45;69.84
25156;BME280;21913;52.456;13.634;2022-12-29T12:21:31;99066.75;;;12.47;70.20
25156;BME280;21913;52.456;13.634;2022-12-29T12:26:44;99072.81;;;12.46;70.13
25156;BME280;21913;52.456;13.634;2022-12-29T12:31:53;99064.19;;;12.45;70.28
25156;BME280;21913;52.456;13.634;2022-12-29T13:03:08;99107.31;;;12.10;63.51
25156;BME280;21913;52.456;13.634;2022-12-29T13:19:01;99133.63;;;12.32;66.89
25156;BME280;21913;52.456;13.634;2022-12-29T13:24:16;99130.09;;;12.36;67.37
25156;BME280;21913;52.456;13.634;2022-12-29T13:40:16;99155.94;;;12.41;68.07
25156;BME280;21913;52.456;13.634;2022-12-29T13:45:22;99154.25;;;12.40;68.22
25156;BME280;21913;52.456;13.634;2022-12-29T13:50:28;99150.72;;;12.43;68.51
25156;BME280;21913;52.456;13.634;2022-12-29T14:00:51;99164.53;;;12.43;68.85
25156;BME280;21913;52.456;13.634;2022-12-29T14:06:19;99168.81;;;12.44;69.02
25156;BME280;21913;52.456;13.634;2022-12-29T14:11:28;99187.84;;;12.45;69.22
25156;BME280;21913;52.456;13.634;2022-12-29T14:16:33;99193.91;;;12.45;69.19
25156;BME280;21913;52.456;13.634;2022-12-29T14:21:35;99196.50;;;12.45;69.33
25156;BME280;21913;52.456;13.634;2022-12-29T14:26:37;99193.03;;;12.45;69.53
25156;BME280;21913;52.456;13.634;2022-12-29T14:31:39;99207.72;;;12.46;69.60
25156;BME280;21913;52.456;13.634;2022-12-29T14:36:43;99215.50;;;12.46;69.72
25156;BME280;21913;52.456;13.634;2022-12-29T14:42:20;99206.88;;;12.45;69.66
25156;BME280;21913;52.456;13.634;2022-12-29T14:47:23;99213.78;;;12.46;69.86
25156;BME280;21913;52.456;13.634;2022-12-29T14:52:29;99212.03;;;12.47;69.84
25156;BME280;21913;52.456;13.634;2022-12-29T14:57:39;99206.00;;;12.46;69.82
25156;BME280;21913;52.456;13.634;2022-12-29T15:02:46;99220.72;;;12.46;69.96
25156;BME280;21913;52.456;13.634;2022-12-29T15:07:49;99235.38;;;12.47;69.89
25156;BME280;21913;52.456;13.634;2022-12-29T15:12:54;99229.31;;;12.48;69.99
25156;BME280;21913;52.456;13.634;2022-12-29T15:17:56;99234.53;;;12.46;70.04
25156;BME280;21913;52.456;13.634;2022-12-29T15:23:02;99232.78;;;12.47;70.09
25156;BME280;21913;52.456;13.634;2022-12-29T15:28:06;99231.09;;;12.46;70.07
25156;BME280;21913;52.456;13.634;2022-12-29T15:33:18;99241.41;;;12.47;70.05
25156;BME280;21913;52.456;13.634;2022-12-29T15:38:25;99241.41;;;12.47;70.15
25156;BME280;21913;52.456;13.634;2022-12-29T15:43:37;99241.41;;;12.47;70.13
25156;BME280;21913;52.456;13.634;2022-12-29T15:48:47;99244.06;;;12.46;70.07
25156;BME280;21913;52.456;13.634;2022-12-29T15:53:50;99239.72;;;12.46;70.28
25156;BME280;21913;52.456;13.634;2022-12-29T15:58:53;99248.34;;;12.47;70.18
25156;BME280;21913;52.456;13.634;2022-12-29T16:03:55;99250.09;;;12.46;70.32
25156;BME280;21913;52.456;13.634;2022-12-29T16:09:07;99244.91;;;12.46;70.22
25156;BME280;21913;52.456;13.634;2022-12-29T16:14:20;99245.75;;;12.47;70.42
25156;BME280;21913;52.456;13.634;2022-12-29T16:19:34;99250.94;;;12.47;70.42
25156;BME280;21913;52.456;13.634;2022-12-29T16:24:39;99250.09;;;12.45;70.29
25156;BME280;21913;52.456;13.634;2022-12-29T16:29:41;99260.47;;;12.46;70.36
25156;BME280;21913;52.456;13.634;2022-12-29T16:34:43;99266.56;;;12.45;70.43
25156;BME280;21913;52.456;13.634;2022-12-29T16:39:45;99276.94;;;12.45;70.43
25156;BME280;21913;52.456;13.634;2022-12-29T16:44:46;99283.81;;;12.46;70.55
25156;BME280;21913;52.456;13.634;2022-12-29T16:49:51;99281.22;;;12.46;70.30
25156;BME280;21913;52.456;13.634;2022-12-29T16:54:56;99282.13;;;12.45;70.53
25156;BME280;21913;52.456;13.634;2022-12-29T17:00:01;99289.88;;;12.47;70.64
25156;BME280;21913;52.456;13.634;2022-12-29T17:05:04;99289.88;;;12.47;70.65
25156;BME280;21913;52.456;13.634;2022-12-29T17:10:06;99298.50;;;12.47;70.56
25156;BME280;21913;52.456;13.634;2022-12-29T17:20:27;99308.91;;;12.46;70.62
25156;BME280;21913;52.456;13.634;2022-12-29T17:25:30;99311.50;;;12.46;70.71
25156;BME280;21913;52.456;13.634;2022-12-29T17:30:33;99310.66;;;12.45;70.59
25156;BME280;21913;52.456;13.634;2022-12-29T17:35:35;99325.34;;;12.46;70.64
25156;BME280;21913;52.456;13.634;2022-12-29T17:40:37;99336.56;;;12.47;70.64
25156;BME280;21913;52.456;13.634;2022-12-29T17:45:40;99345.19;;;12.47;70.78
25156;BME280;21913;52.456;13.634;2022-12-29T17:50:42;99333.13;;;12.46;70.73
25156;BME280;21913;52.456;13.634;2022-12-29T17:55:44;99334.88;;;12.46;70.63
25156;BME280;21913;52.456;13.634;2022-12-29T18:00:57;99334.81;;;12.47;70.74
25156;BME280;21913;52.456;13.634;2022-12-29T18:05:59;99340.00;;;12.47;70.72
25156;BME280;21913;52.456;13.634;2022-12-29T18:11:01;99462.00;;;12.46;70.91
25156;BME280;21913;52.456;13.634;2022-12-29T18:16:02;99419.59;;;12.47;70.71
25156;BME280;21913;52.456;13.634;2022-12-29T18:21:04;99417.84;;;12.47;70.80
25156;BME280;21913;52.456;13.634;2022-12-29T18:26:18;99424.78;;;12.47;70.86
25156;BME280;21913;52.456;13.634;2022-12-29T18:31:26;99426.53;;;12.46;70.78
25156;BME280;21913;52.456;13.634;2022-12-29T18:36:28;99415.28;;;12.46;70.81
25156;BME280;21913;52.456;13.634;2022-12-29T18:41:30;99435.19;;;12.45;70.83
25156;BME280;21913;52.456;13.634;2022-12-29T18:46:31;99430.00;;;12.45;70.73
25156;BME280;21913;52.456;13.634;2022-12-29T18:51:33;99444.69;;;12.45;70.80
25156;BME280;21913;52.456;13.634;2022-12-29T18:56:34;99439.50;;;12.45;70.82
25156;BME280;21913;52.456;13.634;2022-12-29T19:01:36;99425.66;;;12.44;70.89
25156;BME280;21913;52.456;13.634;2022-12-29T19:06:38;99410.97;;;12.45;70.73
25156;BME280;21913;52.456;13.634;2022-12-29T19:11:39;99413.56;;;12.45;70.84
25156;BME280;21913;52.456;13.634;2022-12-29T19:16:41;99429.13;;;12.45;70.76
25156;BME280;21913;52.456;13.634;2022-12-29T19:21:43;99423.06;;;12.44;70.79
25156;BME280;21913;52.456;13.634;2022-12-29T19:26:44;99422.22;;;12.45;70.82
25156;BME280;21913;52.456;13.634;2022-12-29T19:31:46;99419.63;;;12.45;70.82
25156;BME280;21913;52.456;13.634;2022-12-29T19:36:48;99444.69;;;12.45;70.88
25156;BME280;21913;52.456;13.634;2022-12-29T19:41:49;99446.44;;;12.44;71.00
25156;BME280;21913;52.456;13.634;2022-12-29T19:46:51;99446.44;;;12.44;70.97
25156;BME280;21913;52.456;13.634;2022-12-29T19:51:52;99461.13;;;12.45;70.95
25156;BME280;21913;52.456;13.634;2022-12-29T19:56:54;99468.03;;;12.45;71.01
25156;BME280;21913;52.456;13.634;2022-12-29T20:01:56;99468.94;;;12.44;71.05
25156;BME280;21913;52.456;13.634;2022-12-29T20:06:57;99479.31;;;12.45;71.13
25156;BME280;21913;52.456;13.634;2022-12-29T20:11:59;99482.75;;;12.44;71.04
25156;BME280;21913;52.456;13.634;2022-12-29T20:17:00;99491.38;;;12.45;71.03
25156;BME280;21913;52.456;13.634;2022-12-29T20:22:11;99490.53;;;12.44;71.00
25156;BME280;21913;52.456;13.634;2022-12-29T20:27:14;99500.91;;;12.44;71.10
25156;BME280;21913;52.456;13.634;2022-12-29T20:32:19;99487.09;;;12.45;71.15
25156;BME280;21913;52.456;13.634;2022-12-29T20:37:21;99486.19;;;12.45;71.15
25156;BME280;21913;52.456;13.634;2022-12-29T20:42:24;99506.09;;;12.44;71.07
25156;BME280;21913;52.456;13.634;2022-12-29T20:47:25;99509.56;;;12.45;71.18
25156;BME280;21913;52.456;13.634;2022-12-29T20:52:27;99512.16;;;12.45;71.08
25156;BME280;21913;52.456;13.634;2022-12-29T20:57:29;99519.94;;;12.45;71.14
25156;BME280;21913;52.456;13.634;2022-12-29T21:02:35;99526.84;;;12.44;71.16
25156;BME280;21913;52.456;13.634;2022-12-29T21:07:37;99526.00;;;12.44;71.04
25156;BME280;21913;52.456;13.634;2022-12-29T21:12:38;99541.56;;;12.45;71.18
25156;BME280;21913;52.456;13.634;2022-12-29T21:17:43;99537.25;;;12.44;71.01
25156;BME280;21913;52.456;13.634;2022-12-29T21:22:46;99540.69;;;12.45;71.20
25156;BME280;21913;52.456;13.634;2022-12-29T21:27:48;99543.31;;;12.43;71.08
25156;BME280;21913;52.456;13.634;2022-12-29T21:32:49;99548.47;;;12.45;71.15
25156;BME280;21913;52.456;13.634;2022-12-29T21:37:51;99556.25;;;12.45;71.15
25156;BME280;21913;52.456;13.634;2022-12-29T21:42:53;99552.81;;;12.44;71.18
25156;BME280;21913;52.456;13.634;2022-12-29T21:48:03;99564.03;;;12.45;71.38
25156;BME280;21913;52.456;13.634;2022-12-29T21:53:05;99567.53;;;12.45;71.04
25156;BME280;21913;52.456;13.634;2022-12-29T21:58:07;99561.44;;;12.45;71.24
25156;BME280;21913;52.456;13.634;2022-12-29T22:03:09;99574.41;;;12.45;71.08
25156;BME280;21913;52.456;13.634;2022-12-29T22:08:14;99564.91;;;12.44;71.19
25156;BME280;21913;52.456;13.634;2022-12-29T22:13:16;99558.00;;;12.44;71.17
25156;BME280;21913;52.456;13.634;2022-12-29T22:18:18;99566.63;;;12.45;71.12
25156;BME280;21913;52.456;13.634;2022-12-29T22:23:19;99564.91;;;12.44;71.16
25156;BME280;21913;52.456;13.634;2022-12-29T22:28:21;99575.31;;;12.44;71.17
25156;BME280;21913;52.456;13.634;2022-12-29T22:33:22;99572.72;;;12.44;71.19
25156;BME280;21913;52.456;13.634;2022-12-29T22:38:24;99585.69;;;12.44;71.15
25156;BME280;21913;52.456;13.634;2022-12-29T22:43:25;99596.06;;;12.44;71.24
25156;BME280;21913;52.456;13.634;2022-12-29T22:48:30;99589.97;;;12.45;71.16
25156;BME280;21913;52.456;13.634;2022-12-29T22:53:32;99606.44;;;12.44;71.22
25156;BME280;21913;52.456;13.634;2022-12-29T22:58:33;99615.06;;;12.44;71.21
25156;BME280;21913;52.456;13.634;2022-12-29T23:03:35;99609.03;;;12.44;71.19
25156;BME280;21913;52.456;13.634;2022-12-29T23:08:37;99620.25;;;12.44;71.21
25156;BME280;21913;52.456;13.634;2022-12-29T23:13:40;99628.06;;;12.43;71.36
25156;BME280;21913;52.456;13.634;2022-12-29T23:18:44;99628.94;;;12.43;71.23
25156;BME280;21913;52.456;13.634;2022-12-29T23:23:46;99625.44;;;12.44;71.25
25156;BME280;21913;52.456;13.634;2022-12-29T23:28:49;99622.84;;;12.44;71.26
25156;BME280;21913;52.456;13.634;2022-12-29T23:33:53;99647.94;;;12.44;71.21
25156;BME280;21913;52.456;13.634;2022-12-29T23:38:55;99666.09;;;12.44;71.17
25156;BME280;21913;52.456;13.634;2022-12-29T23:43:57;99686.88;;;12.44;71.24
25156;BME280;21913;52.456;13.634;2022-12-29T23:48:59;99686.00;;;12.43;71.16
25156;BME280;21913;52.456;13.634;2022-12-29T23:54:01;99693.78;;;12.43;71.16
25156;BME280;21913;52.456;13.634;2022-12-29T23:59:04;99721.47;;;12.43;71.30
